Time;durP1;ratioP1;P1;durP2;ratioP2;P2;SDS_P1;SDS_P2;PMS_P1;PMS_P2;Temp;Humidity;BMP_temperature;BMP_pressure;BME280_temperature;BME280_humidity;BME280_pressure;Samples;Min_cycle;Max_cycle;Signal;HPM_P1;HPM_P2
2022/12/04 00:01:25;;;;;;;;;28.25;25.00;;;;;6.67;58.25;100838.13;5009030;28;45616;-62
2022/12/04 00:03:55;;;;;;;;;36.25;24.25;;;;;6.63;57.75;100818.50;5012649;28;45319;-60
2022/12/04 00:06:21;;;;;;;;;28.25;28.00;;;;;6.78;58.11;100836.84;5012331;28;45511;-64
2022/12/04 00:08:47;;;;;;;;;32.75;24.50;;;;;6.77;57.23;100834.13;5012711;28;45540;-63
2022/12/04 00:11:16;;;;;;;;;46.00;32.25;;;;;6.73;57.88;100833.09;5011566;28;46279;-57
2022/12/04 00:13:41;;;;;;;;;46.75;28.75;;;;;6.77;57.49;100823.50;5003480;28;46115;-65
2022/12/04 00:16:10;;;;;;;;;27.50;22.50;;;;;6.74;57.42;100832.22;5014005;28;45423;-64
2022/12/04 00:18:35;;;;;;;;;58.25;42.00;;;;;6.69;57.87;100824.91;5014232;28;45438;-61
2022/12/04 00:21:05;;;;;;;;;62.25;42.75;;;;;6.71;58.12;100833.84;5012584;28;45653;-64
2022/12/04 00:23:31;;;;;;;;;23.75;22.75;;;;;6.62;57.84;100808.72;5013392;28;46467;-61
2022/12/04 00:26:02;;;;;;;;;50.50;36.25;;;;;6.66;57.86;100819.47;5007797;28;45668;-63
2022/12/04 00:28:27;;;;;;;;;37.75;30.00;;;;;6.71;58.00;100831.19;5026005;28;45155;-61
2022/12/04 00:30:53;;;;;;;;;61.50;49.25;;;;;6.74;58.15;100833.97;5030473;28;46002;-61
2022/12/04 00:33:18;;;;;;;;;37.25;33.75;;;;;6.40;58.22;100776.75;5017255;28;45285;-60
2022/12/04 00:35:43;;;;;;;;;29.00;24.00;;;;;6.54;57.42;100815.44;5019181;28;44661;-62
2022/12/04 00:38:09;;;;;;;;;32.00;26.00;;;;;6.52;57.59;100813.56;5015237;28;49125;-61
2022/12/04 00:40:34;;;;;;;;;34.00;25.25;;;;;6.64;58.06;100828.25;5012030;28;45022;-61
2022/12/04 00:43:00;;;;;;;;;60.25;45.00;;;;;6.40;58.09;100777.69;5019434;28;46141;-61
2022/12/04 00:45:25;;;;;;;;;33.50;27.50;;;;;6.50;57.49;100794.94;5018886;28;45248;-63
2022/12/04 00:47:50;;;;;;;;;35.50;25.50;;;;;6.70;57.43;100832.94;5018953;28;45347;-63
2022/12/04 00:50:16;;;;;;;;;37.75;24.50;;;;;6.68;57.58;100821.31;5011944;28;45289;-62
2022/12/04 00:52:41;;;;;;;;;58.25;42.25;;;;;6.70;57.93;100821.41;5013621;28;46155;-63
2022/12/04 00:55:07;;;;;;;;;22.50;16.25;;;;;6.73;57.42;100816.22;5013725;28;45097;-61
2022/12/04 00:57:32;;;;;;;;;32.75;23.75;;;;;6.71;57.46;100818.81;5009030;28;45441;-58
2022/12/04 00:59:58;;;;;;;;;27.75;24.50;;;;;6.68;57.98;100828.41;5029758;28;44887;-61
2022/12/04 01:02:23;;;;;;;;;31.50;23.75;;;;;6.64;57.52;100832.66;5018121;28;46040;-61
2022/12/04 01:04:49;;;;;;;;;33.75;30.25;;;;;6.59;57.66;100826.25;5026045;28;45081;-61
2022/12/04 01:07:14;;;;;;;;;35.25;27.25;;;;;6.57;57.92;100818.22;5007242;28;45129;-66
2022/12/04 01:09:40;;;;;;;;;33.25;21.25;;;;;6.42;57.63;100788.38;5011096;28;45134;-62
2022/12/04 01:12:05;;;;;;;;;37.25;30.00;;;;;6.60;58.12;100820.09;5025149;28;46497;-61
2022/12/04 01:14:31;;;;;;;;;31.50;24.75;;;;;6.64;57.66;100820.28;5014692;28;45068;-67
2022/12/04 01:16:57;;;;;;;;;34.25;29.25;;;;;6.61;57.63;100813.94;5011805;28;45453;-59
2022/12/04 01:19:22;;;;;;;;;34.75;27.25;;;;;6.53;58.13;100796.78;5013994;28;45568;-63
2022/12/04 01:21:47;;;;;;;;;33.50;25.25;;;;;6.60;57.97;100815.72;5011648;28;45254;-65
2022/12/04 01:24:13;;;;;;;;;29.75;25.25;;;;;6.60;57.58;100818.38;5029423;28;45030;-62
2022/12/04 01:26:38;;;;;;;;;25.50;22.75;;;;;6.48;58.01;100796.56;5019959;28;45131;-65
2022/12/04 01:29:04;;;;;;;;;32.25;26.00;;;;;6.59;58.00;100807.69;5012025;28;45211;-67
2022/12/04 01:31:30;;;;;;;;;30.25;24.25;;;;;6.66;57.55;100815.06;5017276;28;52879;-66
2022/12/04 01:33:55;;;;;;;;;28.75;22.75;;;;;6.57;57.96;100793.44;5015936;28;44991;-64
2022/12/04 01:36:24;;;;;;;;;27.75;21.50;;;;;6.63;57.33;100797.25;5025284;28;45052;-62
2022/12/04 01:38:49;;;;;;;;;23.75;19.25;;;;;6.65;57.55;100800.00;5031864;28;45127;-70
2022/12/04 01:41:20;;;;;;;;;36.00;29.75;;;;;6.64;57.67;100790.19;5016347;28;45896;-70
2022/12/04 01:44:07;;;;;;;;;28.75;23.00;;;;;6.70;57.93;100794.84;5034363;28;44929;-60
2022/12/04 01:46:33;;;;;;;;;32.00;24.25;;;;;6.55;58.16;100795.09;5028647;28;45040;-65
2022/12/04 01:48:59;;;;;;;;;32.00;26.25;;;;;6.56;58.25;100795.16;5030313;28;45162;-66
2022/12/04 01:51:30;;;;;;;;;27.25;25.75;;;;;6.66;58.05;100811.50;5017202;28;45399;-67
2022/12/04 01:54:01;;;;;;;;;35.00;27.50;;;;;6.65;57.85;100810.59;5022237;28;44924;-63
2022/12/04 01:56:46;;;;;;;;;25.75;24.00;;;;;6.67;58.07;100816.88;5012125;28;45008;-61
2022/12/04 01:59:15;;;;;;;;;32.75;26.00;;;;;6.59;58.11;100797.97;5012051;28;45106;-62
2022/12/04 02:01:48;;;;;;;;;31.50;27.50;;;;;6.72;57.96;100820.63;5009924;28;46776;-66
2022/12/04 02:04:14;;;;;;;;;27.50;20.75;;;;;6.71;57.81;100809.94;5011932;28;44984;-62
2022/12/04 02:06:39;;;;;;;;;15.75;14.25;;;;;6.67;57.93;100810.69;5015399;28;45706;-64
2022/12/04 02:09:05;;;;;;;;;32.75;25.25;;;;;6.44;57.70;100779.63;5014812;28;45070;-62
2022/12/04 02:11:40;;;;;;;;;35.75;28.50;;;;;6.62;57.73;100810.47;5030270;28;45684;-63
2022/12/04 02:14:27;;;;;;;;;28.50;25.00;;;;;6.58;58.40;100806.78;5021401;28;45092;-61
2022/12/04 02:17:14;;;;;;;;;31.50;22.50;;;;;6.67;58.08;100806.25;5017542;28;45632;-59
2022/12/04 02:20:12;;;;;;;;;32.25;23.00;;;;;6.69;57.94;100817.84;5020266;28;45017;-63
2022/12/04 02:23:10;;;;;;;;;32.50;21.25;;;;;6.68;57.91;100805.41;4990282;28;45314;-62
2022/12/04 02:26:13;;;;;;;;;33.00;27.25;;;;;6.79;57.61;100814.75;5023517;28;45377;-61
2022/12/04 02:29:05;;;;;;;;;24.75;22.00;;;;;6.75;57.66;100806.59;5031758;28;45078;-62
2022/12/04 02:31:47;;;;;;;;;30.50;25.50;;;;;6.82;57.75;100809.56;5013369;28;45160;-57
2022/12/04 02:34:20;;;;;;;;;29.25;24.00;;;;;6.76;58.07;100797.78;5019043;28;45938;-66
2022/12/04 02:37:02;;;;;;;;;35.25;26.75;;;;;6.72;57.87;100817.09;5016414;28;45104;-60
2022/12/04 02:39:41;;;;;;;;;32.00;28.50;;;;;6.64;57.60;100820.28;5022898;28;44967;-58
2022/12/04 02:42:18;;;;;;;;;37.00;25.00;;;;;6.60;58.14;100813.06;5023797;28;45276;-59
2022/12/04 02:44:48;;;;;;;;;27.50;21.00;;;;;6.59;58.21;100799.72;5021248;28;45348;-66
2022/12/04 02:47:18;;;;;;;;;27.25;23.75;;;;;6.64;58.01;100800.81;5017463;28;45117;-61
2022/12/04 02:49:54;;;;;;;;;28.50;26.00;;;;;6.68;57.79;100801.84;5016130;28;44970;-62
2022/12/04 02:52:27;;;;;;;;;38.00;25.75;;;;;6.75;58.04;100807.50;5012755;28;45219;-63
2022/12/04 02:54:59;;;;;;;;;27.50;19.00;;;;;6.74;57.85;100797.72;5010799;28;46769;-60
2022/12/04 02:57:30;;;;;;;;;35.50;29.25;;;;;6.75;57.65;100796.88;5011734;28;45015;-63
2022/12/04 02:59:59;;;;;;;;;37.00;24.75;;;;;6.76;57.57;100789.81;5013546;28;45194;-62
2022/12/04 03:02:32;;;;;;;;;33.00;29.50;;;;;6.82;57.18;100809.56;5035384;28;45197;-61
2022/12/04 03:05:04;;;;;;;;;31.75;24.75;;;;;6.64;57.39;100776.94;5023927;28;45405;-60
2022/12/04 03:07:35;;;;;;;;;25.00;22.50;;;;;6.18;57.86;100698.00;5013372;28;45045;-63
2022/12/04 03:10:08;;;;;;;;;28.75;27.00;;;;;6.89;57.33;100817.78;5016516;28;45205;-58
2022/12/04 03:12:51;;;;;;;;;36.00;28.75;;;;;6.80;57.33;100791.78;5025037;28;45349;-59
2022/12/04 03:15:25;;;;;;;;;31.50;25.75;;;;;6.80;57.36;100787.34;5026224;28;45644;-60
2022/12/04 03:18:06;;;;;;;;;31.50;30.00;;;;;6.79;57.54;100782.88;5016895;28;45680;-58
2022/12/04 03:20:35;;;;;;;;;26.75;23.25;;;;;6.73;57.67;100768.44;5016776;28;45129;-58
2022/12/04 03:23:11;;;;;;;;;25.25;22.50;;;;;6.90;57.58;100793.97;5038154;28;45818;-61
2022/12/04 03:25:49;;;;;;;;;36.75;28.50;;;;;6.83;57.43;100776.88;5013852;28;45819;-62
2022/12/04 03:28:33;;;;;;;;;36.25;26.25;;;;;6.83;57.24;100770.66;5027470;28;45107;-59
2022/12/04 03:31:05;;;;;;;;;39.75;27.75;;;;;6.85;56.84;100771.63;5018069;28;45273;-58
2022/12/04 03:33:37;;;;;;;;;38.00;27.25;;;;;6.95;57.02;100781.78;5010243;28;45200;-58
2022/12/04 03:36:31;;;;;;;;;37.25;25.00;;;;;6.82;57.43;100768.84;5014699;28;46516;-60
2022/12/04 03:39:02;;;;;;;;;31.75;27.00;;;;;6.88;57.79;100774.41;5027361;28;45321;-60
2022/12/04 03:41:38;;;;;;;;;23.00;23.00;;;;;6.89;57.37;100777.97;5016838;28;45447;-59
2022/12/04 03:44:24;;;;;;;;;27.50;25.75;;;;;6.79;57.20;100752.75;5017869;28;45156;-60
2022/12/04 03:46:57;;;;;;;;;35.50;23.50;;;;;6.65;56.58;100733.63;5023881;28;45452;-60
2022/12/04 03:49:47;;;;;;;;;32.50;29.00;;;;;6.79;57.06;100766.03;5015030;28;45372;-66
2022/12/04 03:52:31;;;;;;;;;33.75;24.75;;;;;6.79;57.55;100768.69;5025192;28;45317;-60
2022/12/04 03:55:03;;;;;;;;;43.50;29.50;;;;;6.71;57.43;100755.09;5024856;28;45462;-59
2022/12/04 03:57:36;;;;;;;;;39.75;29.00;;;;;6.68;57.67;100754.97;5021422;28;45699;-61
2022/12/04 04:00:12;;;;;;;;;36.00;24.75;;;;;6.77;57.39;100762.44;5011429;28;45208;-60
2022/12/04 04:02:53;;;;;;;;;43.00;26.50;;;;;6.72;57.50;100738.34;5022990;28;45182;-62
2022/12/04 04:05:21;;;;;;;;;30.25;26.50;;;;;6.82;57.02;100750.25;5010240;28;45354;-63
2022/12/04 04:07:52;;;;;;;;;40.25;29.00;;;;;6.84;57.68;100729.97;5017926;28;46015;-60
2022/12/04 04:10:24;;;;;;;;;37.00;25.25;;;;;6.74;57.14;100710.09;5022648;28;45363;-61
2022/12/04 04:24:32;;;;;;;;;33.75;24.50;;;;;6.83;57.10;100689.22;5017172;28;45144;-63
2022/12/04 04:26:58;;;;;;;;;30.00;24.75;;;;;6.79;57.32;100681.97;5013689;28;45382;-61
2022/12/04 04:29:25;;;;;;;;;38.75;32.25;;;;;6.90;57.44;100700.13;5012362;28;44966;-64
2022/12/04 04:32:10;;;;;;;;;30.50;26.50;;;;;6.95;57.31;100698.53;5011511;28;45081;-63
2022/12/04 04:34:59;;;;;;;;;39.00;26.50;;;;;6.92;57.33;100701.06;5010964;28;45063;-62
2022/12/04 04:37:49;;;;;;;;;37.50;31.50;;;;;6.91;57.10;100716.06;5030731;28;44924;-63
2022/12/04 04:40:24;;;;;;;;;33.75;28.25;;;;;6.91;57.13;100723.16;5011810;28;45874;-58
2022/12/04 04:42:56;;;;;;;;;30.25;22.75;;;;;6.80;56.83;100723.63;5017485;28;45161;-61
2022/12/04 04:45:54;;;;;;;;;43.50;30.75;;;;;6.83;57.51;100718.44;5011995;28;45078;-58
2022/12/04 04:48:23;;;;;;;;;30.50;17.00;;;;;6.87;57.12;100722.13;5012315;28;45358;-59
2022/12/04 04:50:49;;;;;;;;;37.75;27.25;;;;;6.81;57.55;100703.28;5009495;28;45839;-59
2022/12/04 04:53:20;;;;;;;;;32.75;24.25;;;;;6.87;57.05;100713.25;5026172;28;45449;-61
2022/12/04 04:55:46;;;;;;;;;30.75;24.00;;;;;6.73;57.33;100694.09;5019265;28;45132;-58
2022/12/04 04:58:15;;;;;;;;;38.50;29.75;;;;;6.75;57.27;100695.97;5011524;28;45429;-59
2022/12/04 05:00:50;;;;;;;;;39.75;25.75;;;;;6.92;57.13;100724.97;5031208;28;46010;-61
2022/12/04 05:03:16;;;;;;;;;39.75;26.50;;;;;6.76;57.31;100695.13;5017572;28;44967;-57
2022/12/04 05:05:41;;;;;;;;;33.75;28.50;;;;;6.82;57.26;100703.34;5011878;28;45079;-59
2022/12/04 05:08:06;;;;;;;;;33.00;25.75;;;;;6.91;56.98;100716.06;5014674;28;45155;-58
2022/12/04 05:10:32;;;;;;;;;37.00;30.00;;;;;6.91;57.08;100715.19;5017707;28;45625;-58
2022/12/04 05:12:57;;;;;;;;;46.00;36.00;;;;;6.67;57.38;100673.53;5016295;28;52708;-59
2022/12/04 05:15:22;;;;;;;;;32.25;27.50;;;;;6.96;57.15;100721.59;5027431;28;45105;-57
2022/12/04 05:17:47;;;;;;;;;26.75;24.00;;;;;6.64;56.99;100678.69;5025162;28;44950;-58
2022/12/04 05:20:13;;;;;;;;;38.50;33.00;;;;;6.81;57.03;100722.78;5033299;28;45303;-59
2022/12/04 05:22:38;;;;;;;;;32.00;26.25;;;;;6.86;57.42;100727.38;5026977;28;45097;-58
2022/12/04 05:25:05;;;;;;;;;41.75;27.50;;;;;6.81;57.20;100709.50;5038944;28;45131;-60
2022/12/04 05:27:31;;;;;;;;;36.25;29.75;;;;;6.87;57.15;100722.13;5018109;28;45085;-60
2022/12/04 05:29:57;;;;;;;;;35.00;30.25;;;;;6.91;56.72;100732.00;5015270;28;45943;-61
2022/12/04 05:32:25;;;;;;;;;28.50;26.00;;;;;6.95;57.23;100731.31;5014829;28;45273;-60
2022/12/04 05:34:52;;;;;;;;;32.25;24.75;;;;;6.90;57.42;100735.53;5024503;28;45155;-59
2022/12/04 05:37:19;;;;;;;;;30.00;26.25;;;;;6.91;57.36;100720.50;5016424;28;44890;-60
2022/12/04 05:39:44;;;;;;;;;37.50;29.50;;;;;6.97;57.35;100723.41;5020988;28;45770;-60
2022/12/04 05:42:10;;;;;;;;;29.50;23.50;;;;;6.86;57.58;100722.94;5024957;28;44957;-60
2022/12/04 05:44:35;;;;;;;;;36.75;29.75;;;;;6.97;56.94;100750.88;5024038;28;45043;-59
2022/12/04 05:47:01;;;;;;;;;31.25;27.50;;;;;6.88;57.34;100749.56;5038716;28;45184;-57
2022/12/04 05:49:34;;;;;;;;;37.25;29.50;;;;;6.82;57.06;100737.84;5021575;28;45490;-58
2022/12/04 05:52:00;;;;;;;;;28.50;24.50;;;;;6.86;57.17;100748.63;5021652;28;45248;-58
2022/12/04 05:54:25;;;;;;;;;35.75;30.50;;;;;6.95;57.40;100759.63;5007234;28;45312;-58
2022/12/04 05:56:51;;;;;;;;;36.25;28.00;;;;;6.98;57.51;100759.75;5016198;28;44946;-59
2022/12/04 05:59:16;;;;;;;;;39.50;26.75;;;;;6.96;57.33;100754.38;5026731;28;45866;-59
2022/12/04 06:01:42;;;;;;;;;36.75;29.50;;;;;7.01;57.05;100768.75;5018989;28;45119;-64
2022/12/04 06:04:08;;;;;;;;;34.00;25.75;;;;;7.03;56.87;100766.16;5029506;28;46530;-67
2022/12/04 06:06:33;;;;;;;;;41.50;23.25;;;;;7.08;56.80;100775.22;5021239;28;45146;-60
2022/12/04 06:09:00;;;;;;;;;38.00;23.25;;;;;7.08;57.18;100771.63;5027362;28;45822;-59
2022/12/04 06:11:30;;;;;;;;;31.75;27.25;;;;;7.14;57.40;100778.13;5013744;28;45290;-58
2022/12/04 06:13:57;;;;;;;;;32.00;28.25;;;;;7.18;56.53;100776.50;5012530;28;45510;-57
2022/12/04 06:16:25;;;;;;;;;35.25;28.00;;;;;6.99;57.05;100735.00;5027086;28;45040;-58
2022/12/04 06:18:56;;;;;;;;;36.50;29.25;;;;;7.09;56.57;100750.44;5015299;28;45501;-58
2022/12/04 06:21:23;;;;;;;;;45.25;32.25;;;;;7.17;56.66;100764.94;5010268;28;45296;-58
2022/12/04 06:23:49;;;;;;;;;34.75;27.00;;;;;7.05;56.75;100767.13;5008219;28;45355;-59
2022/12/04 06:26:15;;;;;;;;;37.75;30.25;;;;;7.01;57.19;100768.75;5025875;28;45120;-57
2022/12/04 06:28:40;;;;;;;;;48.00;33.50;;;;;7.03;57.73;100758.19;5025091;28;45236;-61
2022/12/04 06:31:08;;;;;;;;;41.00;30.00;;;;;7.04;57.33;100756.44;5012402;28;44982;-58
2022/12/04 06:33:34;;;;;;;;;33.75;28.25;;;;;6.97;57.52;100747.31;5022440;28;44999;-58
2022/12/04 06:36:03;;;;;;;;;35.50;30.50;;;;;7.04;57.48;100759.09;5013649;28;45474;-57
2022/12/04 06:38:29;;;;;;;;;36.00;29.75;;;;;6.87;57.02;100731.84;5008395;28;47891;-58
2022/12/04 06:40:55;;;;;;;;;27.75;22.50;;;;;7.06;57.42;100768.03;5018224;28;45335;-57
2022/12/04 06:43:20;;;;;;;;;34.00;26.25;;;;;7.03;57.34;100766.16;5023093;28;45203;-58
2022/12/04 06:45:46;;;;;;;;;33.50;29.00;;;;;6.96;57.24;100772.03;5027091;28;44949;-58
2022/12/04 06:48:11;;;;;;;;;30.75;29.25;;;;;6.83;57.32;100763.59;5025877;28;45813;-57
2022/12/04 06:50:36;;;;;;;;;37.00;28.00;;;;;6.85;57.74;100761.00;5018676;28;45187;-59
2022/12/04 06:53:02;;;;;;;;;41.25;27.50;;;;;6.99;57.39;100780.16;5028926;28;45187;-59
2022/12/04 06:55:28;;;;;;;;;38.50;32.00;;;;;7.07;57.77;100791.09;5030691;28;45089;-58
2022/12/04 06:57:53;;;;;;;;;39.50;32.00;;;;;7.01;58.05;100776.72;5019329;28;45684;-58
2022/12/04 07:00:19;;;;;;;;;36.25;23.50;;;;;7.03;57.82;100775.84;5018822;28;45367;-57
2022/12/04 07:02:44;;;;;;;;;41.75;32.50;;;;;6.96;57.18;100764.06;5023119;28;45093;-57
2022/12/04 07:05:09;;;;;;;;;33.75;26.00;;;;;7.08;57.52;100785.84;5029897;28;45300;-56
2022/12/04 07:07:35;;;;;;;;;37.75;27.75;;;;;6.97;57.46;100765.91;5013306;28;45522;-57
2022/12/04 07:10:02;;;;;;;;;32.00;27.25;;;;;7.05;57.14;100788.38;5004377;28;45401;-58
2022/12/04 07:12:27;;;;;;;;;29.25;23.50;;;;;6.93;57.03;100767.53;5021390;28;45287;-57
2022/12/04 07:14:53;;;;;;;;;35.25;31.50;;;;;7.05;57.25;100790.13;5007937;28;45233;-57
2022/12/04 07:17:18;;;;;;;;;26.75;23.25;;;;;6.93;57.63;100782.53;4998010;28;46135;-58
2022/12/04 07:19:43;;;;;;;;;34.00;28.00;;;;;7.03;58.04;100784.75;5019553;28;45319;-60
2022/12/04 07:22:09;;;;;;;;;35.00;23.75;;;;;7.01;57.82;100781.09;5017438;28;46308;-58
2022/12/04 07:24:36;;;;;;;;;41.50;29.25;;;;;7.07;57.55;100784.03;5014309;28;44935;-57
2022/12/04 07:27:02;;;;;;;;;39.00;28.50;;;;;7.07;57.57;100784.03;5017466;28;45024;-61
2022/12/04 07:29:27;;;;;;;;;28.50;22.75;;;;;7.11;57.23;100785.06;5011158;28;44949;-58
2022/12/04 07:31:52;;;;;;;;;31.50;27.75;;;;;7.01;57.95;100773.13;5017893;28;45207;-60
2022/12/04 07:34:18;;;;;;;;;34.00;28.00;;;;;7.13;57.80;100794.00;5025796;28;45183;-60
2022/12/04 07:36:43;;;;;;;;;34.50;28.00;;;;;7.11;57.74;100783.31;5019822;28;46055;-59
2022/12/04 07:39:09;;;;;;;;;38.00;29.50;;;;;7.21;57.34;100792.56;5016354;28;44913;-60
2022/12/04 07:41:34;;;;;;;;;42.75;34.75;;;;;7.11;57.08;100769.09;5014412;28;45429;-59
2022/12/04 07:43:59;;;;;;;;;39.50;26.75;;;;;7.17;56.80;100788.88;5011458;28;45204;-58
2022/12/04 07:46:26;;;;;;;;;29.75;26.25;;;;;6.97;57.28;100745.56;5021916;28;49748;-59
2022/12/04 07:48:56;;;;;;;;;46.00;28.50;;;;;7.25;56.91;100790.94;5026186;28;44954;-58
2022/12/04 07:51:25;;;;;;;;;33.50;26.00;;;;;7.25;57.42;100798.91;5017275;28;44922;-58
2022/12/04 07:53:52;;;;;;;;;30.25;27.75;;;;;7.26;57.35;100793.66;5011310;28;45132;-59
2022/12/04 07:56:18;;;;;;;;;50.75;36.50;;;;;7.29;57.07;100782.22;5017097;28;46095;-58
2022/12/04 07:58:44;;;;;;;;;44.00;33.75;;;;;7.30;56.92;100778.75;5010315;28;45021;-58
2022/12/04 08:01:13;;;;;;;;;36.25;29.00;;;;;7.33;57.04;100782.44;5011060;28;45328;-57
2022/12/04 08:03:44;;;;;;;;;39.00;31.50;;;;;7.36;57.26;100784.31;5016995;28;45058;-65
2022/12/04 08:06:09;;;;;;;;;32.50;29.75;;;;;7.39;56.81;100781.75;5022702;28;45705;-59
2022/12/04 08:08:35;;;;;;;;;41.25;31.00;;;;;7.34;56.75;100770.03;5012517;28;45492;-59
2022/12/04 08:11:04;;;;;;;;;44.00;32.50;;;;;7.18;56.60;100748.16;5012743;28;44998;-59
2022/12/04 08:13:30;;;;;;;;;27.25;23.50;;;;;7.36;57.12;100785.22;5016770;28;45599;-60
2022/12/04 08:15:55;;;;;;;;;40.25;29.50;;;;;7.17;56.92;100756.09;5009612;28;45386;-58
2022/12/04 08:18:20;;;;;;;;;41.75;28.50;;;;;7.33;57.23;100760.25;5012844;28;47759;-62
2022/12/04 08:20:46;;;;;;;;;40.25;35.00;;;;;7.34;57.05;100775.34;5010161;28;44899;-60
2022/12/04 08:23:11;;;;;;;;;33.75;29.25;;;;;7.31;57.22;100762.88;5012552;28;45310;-60
2022/12/04 08:25:39;;;;;;;;;37.00;28.75;;;;;7.32;57.35;100775.28;5028017;28;45142;-59
2022/12/04 08:28:05;;;;;;;;;35.50;29.00;;;;;7.27;57.21;100770.66;5028880;28;45165;-62
2022/12/04 08:30:31;;;;;;;;;36.50;32.00;;;;;7.30;57.16;100766.34;5030732;28;45235;-58
2022/12/04 08:32:57;;;;;;;;;43.25;32.00;;;;;7.36;57.27;100784.31;5025075;28;45132;-59
2022/12/04 08:35:22;;;;;;;;;50.50;35.25;;;;;7.41;56.81;100781.81;5029350;28;46217;-64
2022/12/04 08:37:47;;;;;;;;;33.50;31.25;;;;;7.39;57.43;100779.09;5023166;28;44990;-59
2022/12/04 08:40:13;;;;;;;;;37.75;30.25;;;;;7.39;57.00;100781.75;5030589;28;45071;-59
2022/12/04 08:42:38;;;;;;;;;44.25;32.00;;;;;7.43;57.46;100782.81;5026436;28;45121;-61
2022/12/04 08:45:05;;;;;;;;;43.50;31.25;;;;;7.36;57.12;100773.69;5025709;28;45588;-58
2022/12/04 08:47:30;;;;;;;;;38.00;29.75;;;;;7.31;57.08;100768.19;5027711;28;45025;-60
2022/12/04 08:49:55;;;;;;;;;40.50;32.75;;;;;7.36;56.77;100776.34;5019378;28;45537;-58
2022/12/04 08:52:20;;;;;;;;;45.00;32.25;;;;;7.49;57.03;100785.69;5013508;28;45149;-59
2022/12/04 08:54:46;;;;;;;;;37.75;26.75;;;;;7.41;56.67;100772.09;5012611;28;46095;-59
2022/12/04 08:57:11;;;;;;;;;38.00;31.25;;;;;7.55;56.77;100810.75;5031810;28;45045;-60
2022/12/04 08:59:36;;;;;;;;;29.75;22.50;;;;;7.53;56.08;100804.47;5019796;28;45968;-62
2022/12/04 09:02:02;;;;;;;;;37.25;33.25;;;;;7.62;56.73;100803.91;5015844;28;45113;-61
2022/12/04 09:04:27;;;;;;;;;38.75;29.50;;;;;7.59;56.84;100806.50;5022039;28;45670;-62
2022/12/04 09:06:53;;;;;;;;;42.75;30.75;;;;;7.61;56.14;100801.22;5028718;28;45197;-59
2022/12/04 09:09:18;;;;;;;;;32.50;27.75;;;;;7.65;56.04;100806.69;5027052;28;45302;-59
2022/12/04 09:11:45;;;;;;;;;31.25;30.25;;;;;7.68;56.92;100792.63;5024537;28;45235;-59
2022/12/04 09:14:10;;;;;;;;;41.50;32.25;;;;;7.67;56.20;100796.13;5023489;28;46225;-57
2022/12/04 09:16:36;;;;;;;;;44.25;32.75;;;;;7.62;56.26;100787.06;5019274;28;45060;-59
2022/12/04 09:19:01;;;;;;;;;41.25;30.00;;;;;7.58;56.33;100780.72;5045845;28;45486;-59
2022/12/04 09:21:26;;;;;;;;;28.25;26.25;;;;;7.51;56.03;100776.03;5022037;28;44912;-59
2022/12/04 09:23:52;;;;;;;;;40.25;28.25;;;;;7.69;56.22;100787.38;5012755;28;45416;-58
2022/12/04 09:26:19;;;;;;;;;43.50;34.75;;;;;7.69;56.07;100797.13;5014306;28;44919;-59
2022/12/04 09:28:45;;;;;;;;;40.00;33.00;;;;;7.62;55.91;100790.63;5017360;28;45179;-60
2022/12/04 09:31:10;;;;;;;;;48.50;31.25;;;;;7.65;56.76;100784.53;5021159;28;45207;-59
2022/12/04 09:33:36;;;;;;;;;39.00;31.00;;;;;7.54;55.85;100758.44;5020790;28;45220;-64
2022/12/04 09:36:02;;;;;;;;;32.75;26.25;;;;;7.73;55.54;100781.31;5025391;28;45311;-59
2022/12/04 09:38:28;;;;;;;;;50.75;31.25;;;;;7.69;55.94;100779.41;5011691;28;44976;-59
2022/12/04 09:41:18;;;;;;;;;34.75;28.50;;;;;7.70;55.78;100774.97;5011109;28;45096;-58
2022/12/04 09:44:02;;;;;;;;;36.25;32.50;;;;;7.71;56.20;100792.75;5018991;28;45774;-57
2022/12/04 09:46:49;;;;;;;;;33.25;29.00;;;;;7.67;55.98;100806.75;5015114;28;45246;-60
2022/12/04 09:49:22;;;;;;;;;36.75;29.25;;;;;7.69;55.92;100805.09;5021316;28;45266;-59
2022/12/04 09:51:51;;;;;;;;;40.00;29.50;;;;;7.69;56.77;100805.09;5018196;28;44907;-60
2022/12/04 09:54:21;;;;;;;;;35.50;31.00;;;;;7.08;56.15;100694.59;5006120;28;45490;-58
2022/12/04 09:56:53;;;;;;;;;38.25;24.50;;;;;7.67;56.17;100785.50;5015840;28;45184;-60
2022/12/04 09:59:22;;;;;;;;;40.50;36.00;;;;;7.73;56.28;100791.06;5020410;28;45215;-62
2022/12/04 10:01:54;;;;;;;;;43.50;32.00;;;;;7.78;55.79;100813.41;5021369;28;44988;-62
2022/12/04 10:04:20;;;;;;;;;40.50;33.50;;;;;7.72;56.36;100779.53;5016562;28;45509;-60
2022/12/04 10:07:05;;;;;;;;;39.50;30.50;;;;;7.83;55.73;100792.31;5017620;28;45504;-60
2022/12/04 10:09:52;;;;;;;;;44.00;30.00;;;;;7.85;55.97;100785.28;5020199;28;45471;-61
2022/12/04 10:12:35;;;;;;;;;49.75;35.00;;;;;7.84;56.42;100797.69;5016733;28;45581;-61
2022/12/04 10:15:10;;;;;;;;;40.00;30.25;;;;;7.88;56.30;100791.63;5013115;28;45449;-63
2022/12/04 10:18:07;;;;;;;;;37.50;32.00;;;;;7.91;55.70;100785.53;5001825;28;45657;-64
2022/12/04 10:20:54;;;;;;;;;39.50;34.75;;;;;7.93;55.38;100786.50;5007547;28;45560;-64
2022/12/04 10:23:48;;;;;;;;;37.50;32.50;;;;;7.91;55.52;100783.78;5017333;28;45279;-63
2022/12/04 10:26:17;;;;;;;;;43.75;32.25;;;;;7.94;55.95;100786.56;5017061;28;45717;-61
2022/12/04 10:28:49;;;;;;;;;41.00;33.25;;;;;7.66;55.95;100755.34;5025555;28;45778;-61
2022/12/04 10:31:15;;;;;;;;;43.75;34.75;;;;;7.80;55.58;100769.16;5012201;28;45433;-63
2022/12/04 10:33:54;;;;;;;;;48.00;36.75;;;;;7.91;55.71;100780.22;5031499;28;45315;-59
2022/12/04 10:36:24;;;;;;;;;46.75;32.50;;;;;7.83;55.97;100757.75;5017906;28;46712;-62
2022/12/04 10:38:57;;;;;;;;;36.75;30.75;;;;;7.90;56.53;100767.75;5008808;28;45762;-63
2022/12/04 10:41:25;;;;;;;;;48.50;34.50;;;;;7.90;56.38;100768.69;5009456;28;45568;-62
2022/12/04 10:43:51;;;;;;;;;44.50;32.75;;;;;7.93;56.07;100766.09;5008701;28;45570;-64
2022/12/04 10:46:28;;;;;;;;;34.75;29.25;;;;;7.94;56.49;100767.03;5026146;28;47008;-62
2022/12/04 10:49:05;;;;;;;;;34.75;28.00;;;;;7.98;56.61;100770.72;5012519;28;46681;-63
2022/12/04 10:51:38;;;;;;;;;43.00;36.00;;;;;8.04;56.33;100770.94;5013742;28;45440;-63
2022/12/04 10:54:28;;;;;;;;;43.25;35.00;;;;;8.07;55.42;100781.69;5012175;28;45302;-62
2022/12/04 10:56:55;;;;;;;;;47.00;36.25;;;;;8.08;56.27;100791.47;5017879;28;45525;-61
2022/12/04 10:59:22;;;;;;;;;33.00;26.75;;;;;8.05;55.46;100783.38;5013104;28;45172;-62
2022/12/04 11:01:48;;;;;;;;;34.00;31.00;;;;;8.00;56.25;100769.00;5014294;28;45164;-62
2022/12/04 11:04:23;;;;;;;;;44.25;32.25;;;;;8.00;55.39;100769.00;5024876;28;44999;-63
2022/12/04 11:06:59;;;;;;;;;50.00;36.50;;;;;7.96;56.00;100757.34;5024995;28;47043;-64
2022/12/04 11:09:25;;;;;;;;;41.50;30.50;;;;;7.90;56.12;100738.50;5012711;28;44931;-63
2022/12/04 11:11:51;;;;;;;;;45.75;35.75;;;;;8.09;55.80;100772.00;5010906;28;44976;-65
2022/12/04 11:14:20;;;;;;;;;45.75;33.00;;;;;8.06;56.28;100766.56;5021318;28;44903;-62
2022/12/04 11:16:48;;;;;;;;;50.50;34.75;;;;;8.03;56.36;100762.03;5012704;28;45601;-63
2022/12/04 11:19:28;;;;;;;;;42.75;35.00;;;;;7.94;56.01;100751.06;5011070;28;45110;-62
2022/12/04 11:21:57;;;;;;;;;42.50;37.00;;;;;8.09;56.17;100764.94;5011887;28;45394;-63
2022/12/04 11:24:27;;;;;;;;;52.25;37.50;;;;;8.10;57.00;100756.09;5012589;28;45285;-63
2022/12/04 11:26:53;;;;;;;;;51.00;34.00;;;;;7.98;55.97;100736.13;5010688;28;45747;-62
2022/12/04 11:29:23;;;;;;;;;40.25;36.75;;;;;7.92;56.58;100734.16;5015098;28;45292;-62
2022/12/04 11:31:55;;;;;;;;;49.25;38.00;;;;;7.87;56.26;100728.66;5018535;28;45513;-62
2022/12/04 11:34:26;;;;;;;;;49.50;33.75;;;;;7.88;56.33;100740.19;5010797;28;44915;-67
2022/12/04 11:36:56;;;;;;;;;38.25;32.25;;;;;8.01;56.21;100749.53;5008641;28;45951;-61
2022/12/04 11:39:22;;;;;;;;;42.50;35.00;;;;;8.03;56.84;100758.47;5009997;28;45371;-62
2022/12/04 11:41:58;;;;;;;;;48.00;33.75;;;;;8.01;57.13;100745.13;5015237;28;45045;-61